Lyon Station, Pennsylvania
Current Conditions -  °F | °C
As of 4:35 PM on Wednesday 26 Nov 2014 (Local Time) from KXLL Reporting Station
Light Snow Light Snow  
Wind Chill: 34°   Ceiling: 400
Heat Index: 34°   Visibility: 0.75mi
Dew Point: 32°   Wind: 3mph
Humidity: 93%   Direction: 340°NNW
Pressure: 29.88"   Gusts: NA
Location:  40.51°N, 75.74°W
Report Text: KXLL 262135Z AUTO 34003KT 3/4SM -SN OVC004 01/00 A2988 RMK AO2 P0004
Loading
Personal Weather Stations






























Interactive Weather Map New forecast layout! Learn more

10-Day Weather Forecast

Advertisements
Track Severe Weather on mobile